createdAt,value
2022-11-30T00:01:49.952Z,15.47
2022-11-30T00:04:18.683Z,16.83
2022-11-30T00:06:49.741Z,15.83
2022-11-30T00:09:20.628Z,16.40
2022-11-30T00:11:51.762Z,15.40
2022-11-30T00:14:20.539Z,16.10
2022-11-30T00:16:50.513Z,15.40
2022-11-30T00:19:18.954Z,16.00
2022-11-30T00:21:49.296Z,16.87
2022-11-30T00:24:17.703Z,14.90
2022-11-30T00:26:46.788Z,16.00
2022-11-30T00:29:15.593Z,16.60
2022-11-30T00:31:44.061Z,15.70
2022-11-30T00:34:12.818Z,16.43
2022-11-30T00:36:41.260Z,16.27
2022-11-30T00:39:11.282Z,16.73
2022-11-30T00:41:39.466Z,16.87
2022-11-30T00:44:10.043Z,15.87
2022-11-30T00:46:39.067Z,15.90
2022-11-30T00:49:08.713Z,15.63
2022-11-30T00:51:39.195Z,15.30
2022-11-30T00:54:07.449Z,14.77
2022-11-30T00:56:39.773Z,17.07
2022-11-30T00:59:08.444Z,15.50
2022-11-30T01:01:37.102Z,15.93
2022-11-30T01:04:07.346Z,16.43
2022-11-30T01:06:36.097Z,16.13
2022-11-30T01:09:05.198Z,15.27
2022-11-30T01:11:34.038Z,17.10
2022-11-30T01:14:04.406Z,15.80
2022-11-30T01:16:36.052Z,14.23
2022-11-30T01:19:07.125Z,15.60
2022-11-30T01:21:35.578Z,16.67
2022-11-30T01:24:04.118Z,16.03
2022-11-30T01:26:32.905Z,17.00
2022-11-30T01:29:01.806Z,16.10
2022-11-30T01:31:31.382Z,17.03
2022-11-30T01:34:01.701Z,17.60
2022-11-30T01:36:30.561Z,18.93
2022-11-30T01:38:59.399Z,17.10
2022-11-30T01:41:28.965Z,17.93
2022-11-30T01:43:59.141Z,16.80
2022-11-30T01:46:33.007Z,18.23
2022-11-30T01:49:13.590Z,17.47
2022-11-30T01:51:48.008Z,17.93
2022-11-30T01:54:21.229Z,16.83
2022-11-30T01:56:55.319Z,17.90
2022-11-30T01:59:25.355Z,17.00
2022-11-30T02:01:57.231Z,17.00
2022-11-30T02:04:30.700Z,18.40
2022-11-30T02:07:00.799Z,16.30
2022-11-30T02:09:36.043Z,17.13
2022-11-30T02:12:08.739Z,17.67
2022-11-30T02:14:44.108Z,16.87
2022-11-30T02:17:22.260Z,18.00
2022-11-30T02:20:31.159Z,17.83
2022-11-30T02:23:19.558Z,16.40
2022-11-30T02:25:59.433Z,16.13
2022-11-30T02:28:59.839Z,17.10
2022-11-30T02:31:31.654Z,15.67
2022-11-30T02:34:01.417Z,16.50
2022-11-30T02:36:31.329Z,16.37
2022-11-30T02:39:01.973Z,15.90
2022-11-30T02:41:38.397Z,16.20
2022-11-30T02:44:11.978Z,15.77
2022-11-30T02:47:02.607Z,16.63
2022-11-30T02:49:39.073Z,16.50
2022-11-30T02:52:09.575Z,15.83
2022-11-30T02:54:39.620Z,15.33
2022-11-30T02:57:10.393Z,15.97
2022-11-30T02:59:41.294Z,15.60
2022-11-30T03:02:11.971Z,15.60
2022-11-30T03:04:40.747Z,16.37
2022-11-30T03:07:09.628Z,16.10
2022-11-30T03:09:40.958Z,15.77
2022-11-30T03:12:09.337Z,16.03
2022-11-30T03:14:37.843Z,16.17
2022-11-30T03:17:08.307Z,15.97
2022-11-30T03:19:36.867Z,15.67
2022-11-30T03:22:06.171Z,16.07
2022-11-30T03:24:36.591Z,16.03
2022-11-30T03:27:05.391Z,16.17
2022-11-30T03:29:34.203Z,16.43
2022-11-30T03:32:03.026Z,15.30
2022-11-30T03:34:33.440Z,16.17
2022-11-30T03:37:01.959Z,16.50
2022-11-30T03:39:30.571Z,16.43
2022-11-30T03:41:58.740Z,15.57
2022-11-30T03:44:27.223Z,15.87
2022-11-30T03:46:55.344Z,17.27
2022-11-30T03:49:23.695Z,16.63
2022-11-30T03:51:53.815Z,15.60
2022-11-30T03:54:22.920Z,16.00
2022-11-30T03:56:51.287Z,15.17
2022-11-30T03:59:20.414Z,15.67
2022-11-30T04:01:48.937Z,16.63
2022-11-30T04:04:17.531Z,16.03
2022-11-30T04:06:46.105Z,15.77
2022-11-30T04:09:16.251Z,15.77
2022-11-30T04:11:44.683Z,15.73
2022-11-30T04:14:13.901Z,16.00
2022-11-30T04:16:42.676Z,16.13
2022-11-30T04:19:11.136Z,16.20
2022-11-30T04:21:40.155Z,16.07
2022-11-30T04:24:09.641Z,16.77
2022-11-30T04:26:45.459Z,16.90
2022-11-30T04:29:14.169Z,17.13
2022-11-30T04:31:42.577Z,17.73
2022-11-30T04:34:12.742Z,18.37
2022-11-30T04:36:41.569Z,16.97
2022-11-30T04:39:10.542Z,17.17
2022-11-30T04:41:41.668Z,18.23
2022-11-30T04:44:10.382Z,18.90
2022-11-30T04:46:38.970Z,17.50
2022-11-30T04:49:08.417Z,18.97
2022-11-30T04:51:38.766Z,18.03
2022-11-30T04:54:07.224Z,17.73
2022-11-30T04:56:36.039Z,17.50
2022-11-30T04:59:06.312Z,16.87
2022-11-30T05:01:34.869Z,17.63
2022-11-30T05:04:04.686Z,18.20
2022-11-30T05:06:34.327Z,16.97
2022-11-30T05:09:02.778Z,16.97
2022-11-30T05:11:30.916Z,17.03
2022-11-30T05:13:59.573Z,16.23
2022-11-30T05:16:30.299Z,17.93
2022-11-30T05:18:58.521Z,17.70
2022-11-30T05:21:26.965Z,17.53
2022-11-30T05:23:55.465Z,18.27
2022-11-30T05:26:24.123Z,16.93
2022-11-30T05:28:52.283Z,17.00
2022-11-30T05:31:20.999Z,17.27
2022-11-30T05:33:53.377Z,17.73
2022-11-30T05:36:22.602Z,16.47
2022-11-30T05:38:54.344Z,16.63
2022-11-30T05:41:22.698Z,16.90
2022-11-30T05:43:50.876Z,16.30
2022-11-30T05:46:19.356Z,17.37
2022-11-30T05:48:53.570Z,17.07
2022-11-30T05:51:24.494Z,16.73
2022-11-30T05:53:53.238Z,16.10
2022-11-30T05:56:26.042Z,15.97
2022-11-30T05:58:54.155Z,17.33
2022-11-30T06:01:24.566Z,16.00
2022-11-30T06:03:54.804Z,16.80
2022-11-30T06:06:24.127Z,16.67
2022-11-30T06:08:52.575Z,17.73
2022-11-30T06:11:20.910Z,17.33
2022-11-30T06:13:49.729Z,16.67
2022-11-30T06:16:19.718Z,17.27
2022-11-30T06:18:48.255Z,17.90
2022-11-30T06:21:23.924Z,17.80
2022-11-30T06:23:53.517Z,15.57
2022-11-30T06:26:22.230Z,18.20
2022-11-30T06:28:50.798Z,17.50
2022-11-30T06:31:18.974Z,17.50
2022-11-30T06:33:47.165Z,17.33
2022-11-30T06:36:15.603Z,18.20
2022-11-30T06:38:45.737Z,17.13
2022-11-30T06:41:15.299Z,16.37
2022-11-30T06:43:43.702Z,17.40
2022-11-30T06:46:12.278Z,16.83
2022-11-30T06:48:42.370Z,19.93
2022-11-30T06:51:12.748Z,16.70
2022-11-30T06:53:42.907Z,18.57
2022-11-30T06:56:13.698Z,17.93
2022-11-30T06:58:43.397Z,17.27
2022-11-30T07:01:13.986Z,17.90
2022-11-30T07:03:42.413Z,17.13
2022-11-30T07:06:12.696Z,16.40
2022-11-30T07:08:42.781Z,17.53
2022-11-30T07:11:13.752Z,18.43
2022-11-30T07:13:44.147Z,18.33
2022-11-30T07:16:13.603Z,17.53
2022-11-30T07:18:43.396Z,17.93
2022-11-30T07:21:12.288Z,19.27
2022-11-30T07:23:57.994Z,19.60
2022-11-30T07:26:28.676Z,19.70
2022-11-30T07:28:59.031Z,19.80
2022-11-30T07:31:29.971Z,19.27
2022-11-30T07:33:59.591Z,20.20
2022-11-30T07:36:30.455Z,19.40
2022-11-30T07:38:59.245Z,19.77
2022-11-30T07:41:30.033Z,19.90
2022-11-30T07:44:00.014Z,19.63
2022-11-30T07:46:28.248Z,19.90
2022-11-30T07:48:56.724Z,20.47
2022-11-30T07:51:25.326Z,19.60
2022-11-30T07:53:54.034Z,20.80
2022-11-30T07:56:22.599Z,20.97
2022-11-30T07:58:58.688Z,21.23
2022-11-30T08:01:29.596Z,20.23
2022-11-30T08:04:00.908Z,18.57
2022-11-30T08:06:31.072Z,19.07
2022-11-30T08:09:04.501Z,19.23
2022-11-30T08:11:35.434Z,18.80
2022-11-30T08:14:05.973Z,19.63
2022-11-30T08:16:37.900Z,22.33
2022-11-30T08:19:06.733Z,23.07
2022-11-30T08:21:35.334Z,23.93
2022-11-30T08:24:03.613Z,22.87
2022-11-30T08:26:33.837Z,23.00
2022-11-30T08:29:06.291Z,23.70
2022-11-30T08:31:37.228Z,21.70
2022-11-30T08:34:08.558Z,22.70
2022-11-30T08:36:38.308Z,22.13
2022-11-30T08:39:08.171Z,22.13
2022-11-30T08:41:39.339Z,21.83
2022-11-30T08:44:09.973Z,21.90
2022-11-30T08:46:55.270Z,22.33
2022-11-30T08:49:25.373Z,21.60
2022-11-30T08:54:47.414Z,20.73
2022-11-30T08:57:16.387Z,21.33
2022-11-30T08:59:50.115Z,21.17
2022-11-30T09:02:21.210Z,20.67
2022-11-30T09:04:51.936Z,19.80
2022-11-30T09:07:20.550Z,19.87
2022-11-30T09:09:49.284Z,20.07
2022-11-30T09:12:17.882Z,19.20
2022-11-30T09:14:57.744Z,19.73
2022-11-30T09:17:27.070Z,20.57
2022-11-30T09:19:57.646Z,18.60
2022-11-30T09:22:27.483Z,18.20
2022-11-30T09:24:56.626Z,17.33
2022-11-30T09:27:30.457Z,18.30
2022-11-30T09:30:00.576Z,17.07
2022-11-30T09:32:30.235Z,17.47
2022-11-30T09:34:58.650Z,17.87
2022-11-30T09:37:29.064Z,16.70
2022-11-30T09:39:57.563Z,18.00
2022-11-30T09:42:41.261Z,16.60
2022-11-30T09:45:19.966Z,17.93
2022-11-30T09:48:13.940Z,17.13
2022-11-30T09:50:45.468Z,16.13
2022-11-30T09:53:29.200Z,16.47
2022-11-30T09:56:00.708Z,16.00
2022-11-30T09:58:41.152Z,15.77
2022-11-30T10:01:19.797Z,15.60
2022-11-30T10:03:50.311Z,15.07
2022-11-30T10:06:28.712Z,14.83
2022-11-30T10:09:22.120Z,16.13
2022-11-30T10:11:59.688Z,15.30
2022-11-30T10:15:04.859Z,14.87
2022-11-30T10:17:45.293Z,15.00
2022-11-30T10:20:27.339Z,14.70
2022-11-30T10:23:09.287Z,14.60
2022-11-30T10:25:49.224Z,14.43
2022-11-30T10:31:13.207Z,14.47
2022-11-30T10:33:47.528Z,13.63
2022-11-30T10:36:31.123Z,13.97
2022-11-30T10:39:05.880Z,13.63
2022-11-30T10:41:43.569Z,13.93
2022-11-30T10:44:18.009Z,14.10
2022-11-30T10:46:54.632Z,13.60
2022-11-30T10:49:25.920Z,14.07
2022-11-30T10:51:56.747Z,14.30
2022-11-30T10:54:26.139Z,14.93
2022-11-30T10:56:55.382Z,14.17
2022-11-30T10:59:28.507Z,13.60
2022-11-30T11:01:59.562Z,14.67
2022-11-30T11:04:32.635Z,14.10
2022-11-30T11:07:11.282Z,15.17
2022-11-30T11:09:42.417Z,14.80
2022-11-30T11:12:19.928Z,13.90
2022-11-30T11:14:50.167Z,14.43
2022-11-30T11:17:26.421Z,14.70
2022-11-30T11:19:56.779Z,14.33
2022-11-30T11:22:28.646Z,13.77
2022-11-30T11:25:22.930Z,12.77
2022-11-30T11:27:55.988Z,11.73
2022-11-30T11:30:32.159Z,11.80
2022-11-30T11:33:01.856Z,10.77
2022-11-30T11:35:42.413Z,11.37
2022-11-30T11:38:21.168Z,11.03
2022-11-30T11:41:06.639Z,10.77
2022-11-30T11:43:42.288Z,10.33
2022-11-30T11:46:14.385Z,10.07
2022-11-30T11:48:48.042Z,9.30
2022-11-30T11:51:33.622Z,9.47
2022-11-30T11:54:16.275Z,10.63
2022-11-30T11:56:47.453Z,9.90
2022-11-30T11:59:24.121Z,10.47
2022-11-30T12:02:01.297Z,8.77
2022-11-30T12:04:47.909Z,9.60
2022-11-30T12:07:25.738Z,9.37
2022-11-30T12:10:16.545Z,9.57
2022-11-30T12:12:55.056Z,8.90
2022-11-30T12:15:34.303Z,9.13
2022-11-30T12:18:16.000Z,9.53
2022-11-30T12:20:56.118Z,8.90
2022-11-30T12:23:48.213Z,9.33
2022-11-30T12:26:28.456Z,9.10
2022-11-30T12:29:14.828Z,9.03
2022-11-30T12:31:59.137Z,9.30
2022-11-30T12:34:43.605Z,8.43
2022-11-30T12:37:21.992Z,8.43
2022-11-30T12:40:03.733Z,8.67
2022-11-30T12:42:41.447Z,8.13
2022-11-30T12:45:17.506Z,8.70
2022-11-30T12:47:56.676Z,7.90
2022-11-30T12:50:39.995Z,8.17
2022-11-30T12:53:20.603Z,8.23
2022-11-30T12:56:02.865Z,8.13
2022-11-30T12:58:39.204Z,8.37
2022-11-30T13:01:18.589Z,8.83
2022-11-30T13:04:07.877Z,8.37
2022-11-30T13:06:40.850Z,8.00
2022-11-30T13:09:22.599Z,8.27
2022-11-30T13:11:58.027Z,8.00
2022-11-30T13:14:29.375Z,9.40
2022-11-30T13:17:03.213Z,8.10
2022-11-30T13:19:48.945Z,7.60
2022-11-30T13:22:25.344Z,9.67
2022-11-30T13:25:02.161Z,8.37
2022-11-30T13:27:41.921Z,9.20
2022-11-30T13:30:29.882Z,8.83
2022-11-30T13:32:59.322Z,7.90
2022-11-30T13:35:44.123Z,9.20
2022-11-30T13:38:36.494Z,8.37
2022-11-30T13:41:08.783Z,9.33
2022-11-30T13:43:45.437Z,8.50
2022-11-30T13:46:20.819Z,9.50
2022-11-30T13:48:50.644Z,8.80
2022-11-30T13:51:35.872Z,8.40
2022-11-30T13:54:36.875Z,8.27
2022-11-30T13:57:05.602Z,8.07
2022-11-30T13:59:41.069Z,8.37
2022-11-30T14:03:01.263Z,8.30
2022-11-30T14:05:41.707Z,8.23
2022-11-30T14:08:42.657Z,8.17
2022-11-30T14:11:40.821Z,8.77
2022-11-30T14:14:46.645Z,9.53
2022-11-30T14:17:28.750Z,12.33
2022-11-30T14:20:01.481Z,10.80
2022-11-30T14:22:32.834Z,8.77
2022-11-30T14:25:10.730Z,8.60
2022-11-30T14:27:41.831Z,8.03
2022-11-30T14:30:20.545Z,8.30
2022-11-30T14:32:58.619Z,7.57
2022-11-30T14:35:32.147Z,8.50
2022-11-30T14:38:03.780Z,8.20
2022-11-30T14:40:34.024Z,8.80
2022-11-30T14:43:05.262Z,8.77
2022-11-30T14:45:36.787Z,8.23
2022-11-30T14:48:17.902Z,8.77
2022-11-30T14:50:50.049Z,7.80
2022-11-30T14:53:34.236Z,8.80
2022-11-30T14:56:10.111Z,8.87
2022-11-30T14:58:44.192Z,8.93
2022-11-30T15:01:21.451Z,8.93
2022-11-30T15:03:50.896Z,9.20
2022-11-30T15:06:21.132Z,8.87
2022-11-30T15:08:53.665Z,8.90
2022-11-30T15:11:24.161Z,8.47
2022-11-30T15:13:56.619Z,9.27
2022-11-30T15:16:30.754Z,9.30
2022-11-30T15:19:00.541Z,8.60
2022-11-30T15:21:30.929Z,8.63
2022-11-30T15:24:01.751Z,8.90
2022-11-30T15:26:36.869Z,7.97
2022-11-30T15:29:11.803Z,9.63
2022-11-30T15:31:45.254Z,8.33
2022-11-30T15:34:20.918Z,7.70
2022-11-30T15:36:52.863Z,7.77
2022-11-30T15:39:25.560Z,7.57
2022-11-30T15:41:58.963Z,8.70
2022-11-30T15:44:28.627Z,7.97
2022-11-30T15:47:01.561Z,10.20
2022-11-30T15:49:32.159Z,9.00
2022-11-30T15:52:04.924Z,9.00
2022-11-30T15:54:47.446Z,7.80
2022-11-30T15:57:18.392Z,8.17
2022-11-30T16:00:06.265Z,8.20
2022-11-30T16:02:39.083Z,8.87
2022-11-30T16:05:31.945Z,9.13
2022-11-30T16:08:01.771Z,8.17
2022-11-30T16:10:40.140Z,8.13
2022-11-30T16:13:09.075Z,8.50
2022-11-30T16:15:39.732Z,8.93
2022-11-30T16:18:19.168Z,9.10
2022-11-30T16:20:52.182Z,8.10
2022-11-30T16:23:21.995Z,8.77
2022-11-30T16:25:52.534Z,7.87
2022-11-30T16:28:22.369Z,8.07
2022-11-30T16:30:52.364Z,7.23
2022-11-30T16:33:24.801Z,7.30
2022-11-30T16:35:56.966Z,7.30
2022-11-30T16:38:26.049Z,7.03
2022-11-30T16:40:55.872Z,6.87
2022-11-30T16:43:26.432Z,6.73
2022-11-30T16:45:55.332Z,6.97
2022-11-30T16:48:29.130Z,7.37
2022-11-30T16:50:58.450Z,7.53
2022-11-30T16:53:28.963Z,10.23
2022-11-30T16:55:57.113Z,9.33
2022-11-30T16:58:25.295Z,7.93
2022-11-30T17:00:54.249Z,9.50
2022-11-30T17:03:28.395Z,8.70
2022-11-30T17:05:59.724Z,8.83
2022-11-30T17:08:28.212Z,8.80
2022-11-30T17:10:56.532Z,8.37
2022-11-30T17:13:25.696Z,8.60
2022-11-30T17:15:56.125Z,9.47
2022-11-30T17:18:25.994Z,9.50
2022-11-30T17:20:54.766Z,9.40
2022-11-30T17:23:24.981Z,9.63
2022-11-30T17:25:53.267Z,9.40
2022-11-30T17:28:22.811Z,10.17
2022-11-30T17:30:51.327Z,10.17
2022-11-30T17:33:20.263Z,9.47
2022-11-30T17:35:50.842Z,9.53
2022-11-30T17:38:19.803Z,9.67
2022-11-30T17:40:48.527Z,10.73
2022-11-30T17:43:17.004Z,10.27
2022-11-30T17:45:46.547Z,10.40
2022-11-30T17:48:16.109Z,11.33
2022-11-30T17:50:44.798Z,12.60
2022-11-30T17:53:18.109Z,13.00
2022-11-30T17:55:49.578Z,15.80
2022-11-30T17:58:21.877Z,13.70
2022-11-30T18:00:52.160Z,13.13
2022-11-30T18:03:20.686Z,13.23
2022-11-30T18:05:49.147Z,13.50
2022-11-30T18:08:20.998Z,12.73
2022-11-30T18:10:49.524Z,14.40
2022-11-30T18:13:18.271Z,15.50
2022-11-30T18:15:46.888Z,14.07
2022-11-30T18:18:15.092Z,12.90
2022-11-30T18:20:44.906Z,12.77
2022-11-30T18:23:13.210Z,12.47
2022-11-30T18:25:45.300Z,13.50
2022-11-30T18:28:13.970Z,46.93
2022-11-30T18:30:43.807Z,21.27
2022-11-30T18:33:12.657Z,15.60
2022-11-30T18:35:41.085Z,14.90
2022-11-30T18:38:09.639Z,13.30
2022-11-30T18:40:37.739Z,13.37
2022-11-30T18:43:08.104Z,13.33
2022-11-30T18:45:38.665Z,12.33
2022-11-30T18:48:07.288Z,12.67
2022-11-30T18:50:36.084Z,12.70
2022-11-30T18:53:04.499Z,14.67
2022-11-30T18:55:33.382Z,15.47
2022-11-30T18:58:03.475Z,15.23
2022-11-30T19:00:33.319Z,14.87
2022-11-30T19:03:01.903Z,11.27
2022-11-30T19:05:36.613Z,12.43
2022-11-30T19:08:06.582Z,12.90
2022-11-30T19:10:36.200Z,10.73
2022-11-30T19:13:05.842Z,10.30
2022-11-30T19:15:40.375Z,12.27
2022-11-30T19:18:12.870Z,11.40
2022-11-30T19:20:41.580Z,8.97
2022-11-30T19:23:10.438Z,10.10
2022-11-30T19:25:39.655Z,10.37
2022-11-30T19:28:08.139Z,10.27
2022-11-30T19:30:37.642Z,11.13
2022-11-30T19:33:09.260Z,9.97
2022-11-30T19:35:38.752Z,10.73
2022-11-30T19:38:07.454Z,10.87
2022-11-30T19:40:36.155Z,10.43
2022-11-30T19:43:06.639Z,11.00
2022-11-30T19:45:36.460Z,11.07
2022-11-30T19:48:07.405Z,10.90
2022-11-30T19:50:36.182Z,10.77
2022-11-30T19:53:05.787Z,10.30
2022-11-30T19:55:34.452Z,10.20
2022-11-30T19:58:02.685Z,10.10
2022-11-30T20:00:31.239Z,9.97
2022-11-30T20:03:09.714Z,10.57
2022-11-30T20:05:40.943Z,10.30
2022-11-30T20:08:10.518Z,10.43
2022-11-30T20:10:43.179Z,10.07
2022-11-30T20:13:12.002Z,9.53
2022-11-30T20:15:43.631Z,9.80
2022-11-30T20:18:12.098Z,9.80
2022-11-30T20:20:42.316Z,9.73
2022-11-30T20:23:12.292Z,10.20
2022-11-30T20:25:42.747Z,10.13
2022-11-30T20:28:12.886Z,9.87
2022-11-30T20:30:43.810Z,9.90
2022-11-30T20:33:12.332Z,10.97
2022-11-30T20:35:42.151Z,10.13
2022-11-30T20:38:11.772Z,9.70
2022-11-30T20:40:40.254Z,10.63
2022-11-30T20:43:08.998Z,9.67
2022-11-30T20:45:38.011Z,9.77
2022-11-30T20:48:12.468Z,10.23
2022-11-30T20:51:00.942Z,10.77
2022-11-30T20:53:33.180Z,10.70
2022-11-30T20:56:02.213Z,10.90
2022-11-30T20:58:31.599Z,10.20
2022-11-30T21:01:00.958Z,10.20
2022-11-30T21:03:30.168Z,9.30
2022-11-30T21:06:00.453Z,9.37
2022-11-30T21:08:29.095Z,9.33
2022-11-30T21:10:57.262Z,10.27
2022-11-30T21:13:27.248Z,10.33
2022-11-30T21:15:56.227Z,10.10
2022-11-30T21:18:24.605Z,10.63
2022-11-30T21:20:55.207Z,10.60
2022-11-30T21:23:27.920Z,10.17
2022-11-30T21:25:59.046Z,10.97
2022-11-30T21:28:34.870Z,11.63
2022-11-30T21:31:07.547Z,10.90
2022-11-30T21:33:37.217Z,11.03
2022-11-30T21:36:07.360Z,11.00
2022-11-30T21:38:37.997Z,9.53
2022-11-30T21:41:06.976Z,10.07
2022-11-30T21:43:36.723Z,9.43
2022-11-30T21:46:07.585Z,9.43
2022-11-30T21:48:37.687Z,10.07
2022-11-30T21:51:09.630Z,9.77
2022-11-30T21:53:42.081Z,9.30
2022-11-30T21:56:13.081Z,9.03
2022-11-30T21:58:42.011Z,8.73
2022-11-30T22:01:14.112Z,9.10
2022-11-30T22:03:42.473Z,8.47
2022-11-30T22:06:15.714Z,9.23
2022-11-30T22:08:47.906Z,8.53
2022-11-30T22:11:18.474Z,8.63
2022-11-30T22:13:50.679Z,9.13
2022-11-30T22:16:19.845Z,8.73
2022-11-30T22:18:51.347Z,8.27
2022-11-30T22:21:24.443Z,8.27
2022-11-30T22:23:58.346Z,8.93
2022-11-30T22:26:33.376Z,8.30
2022-11-30T22:29:03.107Z,7.50
2022-11-30T22:31:33.528Z,9.10
2022-11-30T22:34:02.545Z,13.70
2022-11-30T22:36:33.636Z,14.47
2022-11-30T22:39:06.791Z,14.83
2022-11-30T22:41:35.279Z,16.47
2022-11-30T22:44:04.090Z,15.83
2022-11-30T22:46:34.782Z,16.67
2022-11-30T22:49:04.382Z,16.40
2022-11-30T22:51:35.069Z,15.63
2022-11-30T22:54:05.798Z,16.10
2022-11-30T22:56:36.724Z,15.70
2022-11-30T22:59:06.784Z,15.17
2022-11-30T23:01:37.072Z,15.87
2022-11-30T23:04:08.753Z,15.77
2022-11-30T23:06:38.299Z,15.90
2022-11-30T23:09:14.015Z,16.30
2022-11-30T23:11:43.047Z,16.63
2022-11-30T23:14:12.727Z,15.30
2022-11-30T23:16:41.783Z,14.97
2022-11-30T23:19:12.185Z,15.90
2022-11-30T23:21:42.617Z,15.73
2022-11-30T23:24:18.578Z,15.33
2022-11-30T23:26:48.379Z,15.90
2022-11-30T23:29:19.068Z,16.10
2022-11-30T23:31:49.168Z,15.93
2022-11-30T23:34:22.855Z,17.00
2022-11-30T23:36:52.384Z,16.20
2022-11-30T23:39:22.782Z,16.77
2022-11-30T23:41:51.867Z,17.27
2022-11-30T23:44:24.567Z,16.63
2022-11-30T23:46:53.238Z,17.33
2022-11-30T23:49:22.095Z,17.37
2022-11-30T23:51:50.629Z,17.03
2022-11-30T23:54:18.947Z,17.63
2022-11-30T23:56:48.754Z,17.80
2022-11-30T23:59:17.196Z,18.33
